Time;durP1;ratioP1;P1;durP2;ratioP2;P2;SDS_P1;SDS_P2;PMS_P1;PMS_P2;Temp;Humidity;BMP_temperature;BMP_pressure;BME280_temperature;BME280_humidity;BME280_pressure;Samples;Min_cycle;Max_cycle;Signal;HPM_P1;HPM_P2
2023/06/30 00:01:19;;;;;;;1.13;0.85;;;19.30;99.90;;;;;;4175865;28;20017;-63
2023/06/30 00:03:22;;;;;;;2.70;0.93;;;19.20;99.90;;;;;;4178098;28;20029;-62
2023/06/30 00:05:25;;;;;;;1.83;1.00;;;19.30;99.90;;;;;;4155120;28;20119;-61
2023/06/30 00:07:25;;;;;;;4.28;1.38;;;19.30;99.90;;;;;;4178106;28;20052;-61
2023/06/30 00:09:26;;;;;;;3.20;1.30;;;19.30;99.90;;;;;;4174181;28;20025;-61
2023/06/30 00:11:27;;;;;;;0.98;0.77;;;19.30;99.90;;;;;;4177185;28;20063;-62
2023/06/30 00:13:27;;;;;;;1.70;1.02;;;19.30;99.90;;;;;;4177995;28;20032;-61
2023/06/30 00:15:28;;;;;;;1.42;0.75;;;19.30;99.90;;;;;;4173545;28;20420;-61
2023/06/30 00:17:28;;;;;;;3.03;1.30;;;19.30;99.90;;;;;;4178530;28;20036;-61
2023/06/30 00:19:29;;;;;;;1.10;0.88;;;19.30;99.90;;;;;;4178563;28;20033;-61
2023/06/30 00:21:30;;;;;;;2.20;1.25;;;19.40;99.90;;;;;;4177870;28;20472;-61
2023/06/30 00:23:30;;;;;;;1.58;1.10;;;19.40;99.90;;;;;;4177028;28;20048;-61
2023/06/30 00:25:31;;;;;;;3.10;1.00;;;19.30;99.90;;;;;;4174487;28;20172;-61
2023/06/30 00:27:31;;;;;;;3.33;1.00;;;19.30;99.90;;;;;;4178353;28;20111;-61
2023/06/30 00:29:32;;;;;;;0.98;0.75;;;19.30;99.90;;;;;;4178268;28;20024;-61
2023/06/30 00:31:32;;;;;;;1.77;1.27;;;19.30;99.90;;;;;;4176404;28;20041;-61
2023/06/30 00:33:33;;;;;;;1.10;0.93;;;19.20;99.90;;;;;;4177671;28;20047;-61
2023/06/30 00:35:34;;;;;;;1.42;1.00;;;19.20;99.90;;;;;;4174092;28;20500;-61
2023/06/30 00:37:34;;;;;;;3.55;1.30;;;19.20;99.90;;;;;;4178554;28;20037;-61
2023/06/30 00:39:35;;;;;;;2.13;1.20;;;19.20;99.90;;;;;;4173686;28;20041;-62
2023/06/30 00:41:35;;;;;;;1.05;0.73;;;19.20;99.90;;;;;;4176140;28;20033;-62
2023/06/30 00:43:38;;;;;;;2.55;1.15;;;19.20;99.90;;;;;;4178187;28;20036;-61
2023/06/30 00:45:39;;;;;;;2.47;1.27;;;19.30;99.90;;;;;;4174526;28;20037;-61
2023/06/30 00:47:39;;;;;;;2.97;1.42;;;19.20;99.90;;;;;;4178296;28;20565;-61
2023/06/30 00:49:40;;;;;;;1.13;0.93;;;19.20;99.90;;;;;;4177873;28;20032;-61
2023/06/30 00:51:41;;;;;;;1.75;1.20;;;19.20;99.90;;;;;;4176128;28;20036;-61
2023/06/30 00:53:43;;;;;;;2.83;1.20;;;19.20;99.90;;;;;;4177451;28;20033;-61
2023/06/30 00:55:44;;;;;;;2.40;1.52;;;19.30;99.90;;;;;;4173688;28;20037;-61
2023/06/30 00:57:45;;;;;;;2.33;1.48;;;19.30;99.90;;;;;;4178153;28;20396;-61
2023/06/30 00:59:45;;;;;;;3.35;1.70;;;19.30;99.90;;;;;;4178009;28;20183;-61
2023/06/30 01:01:54;;;;;;;2.08;1.38;;;19.20;99.90;;;;;;4173692;28;20036;-61
2023/06/30 01:04:19;;;;;;;2.65;1.38;;;19.20;99.90;;;;;;4177692;28;20037;-61
2023/06/30 01:06:38;;;;;;;4.05;1.17;;;19.20;99.90;;;;;;4174099;28;20399;-61
2023/06/30 01:08:57;;;;;;;2.33;1.30;;;19.20;99.90;;;;;;4174167;28;20036;-61
2023/06/30 01:10:59;;;;;;;3.08;1.45;;;19.20;99.90;;;;;;4175410;28;20035;-61
2023/06/30 01:13:02;;;;;;;2.42;1.60;;;19.20;99.90;;;;;;4178009;28;20045;-61
2023/06/30 01:15:04;;;;;;;4.15;1.63;;;19.20;99.90;;;;;;4174832;28;20025;-62
2023/06/30 01:17:06;;;;;;;2.38;1.60;;;19.20;99.90;;;;;;4176469;28;20029;-61
2023/06/30 01:19:35;;;;;;;1.90;1.17;;;19.20;99.90;;;;;;4176881;28;20029;-61
2023/06/30 01:21:37;;;;;;;5.68;1.90;;;19.20;99.90;;;;;;4169419;28;20290;-61
2023/06/30 01:23:50;;;;;;;2.60;1.83;;;19.10;99.90;;;;;;4177130;28;20043;-61
2023/06/30 01:25:51;;;;;;;4.22;1.90;;;19.20;99.90;;;;;;4168453;28;20480;-62
2023/06/30 01:27:53;;;;;;;5.63;2.03;;;19.20;99.90;;;;;;4177507;28;20540;-61
2023/06/30 01:29:54;;;;;;;;;;;19.10;99.90;;;;;;4158315;28;20041;-61
2023/06/30 01:31:55;;;;;;;2.88;1.63;;;19.10;99.90;;;;;;4173687;28;19917;-61
2023/06/30 01:33:56;;;;;;;3.30;1.88;;;19.10;99.90;;;;;;4176920;28;20049;-61
2023/06/30 01:35:56;;;;;;;5.32;1.60;;;19.10;99.90;;;;;;4174578;28;20032;-61
2023/06/30 01:37:57;;;;;;;3.90;2.17;;;19.10;99.90;;;;;;4176932;28;20029;-60
2023/06/30 01:39:59;;;;;;;3.40;1.95;;;19.10;99.90;;;;;;4172071;28;20048;-61
2023/06/30 01:42:00;;;;;;;3.83;1.73;;;19.00;99.90;;;;;;4175730;28;20430;-61
2023/06/30 01:44:02;;;;;;;4.38;1.67;;;19.00;99.90;;;;;;4175180;28;20029;-61
2023/06/30 01:46:03;;;;;;;5.30;1.70;;;18.90;99.90;;;;;;4173738;28;20472;-60
2023/06/30 01:48:04;;;;;;;3.13;1.80;;;18.90;99.90;;;;;;4175629;28;20036;-61
2023/06/30 01:50:06;;;;;;;4.05;1.60;;;18.90;99.90;;;;;;4173793;28;20040;-63
2023/06/30 01:52:07;;;;;;;6.57;2.00;;;18.90;99.90;;;;;;4174749;28;20069;-61
2023/06/30 01:54:07;;;;;;;5.45;1.85;;;18.90;99.90;;;;;;4174125;28;20037;-61
2023/06/30 01:56:08;;;;;;;5.47;2.30;;;18.90;99.90;;;;;;4172853;28;20503;-61
2023/06/30 01:58:09;;;;;;;10.02;2.63;;;18.90;99.90;;;;;;4169469;28;20044;-61
2023/06/30 02:00:10;;;;;;;7.47;2.47;;;18.90;99.90;;;;;;4152167;28;20100;-61
2023/06/30 02:02:11;;;;;;;6.78;2.00;;;18.80;99.90;;;;;;4174240;28;20036;-61
2023/06/30 02:04:11;;;;;;;14.23;2.78;;;18.80;99.90;;;;;;4171378;28;20119;-61
2023/06/30 02:06:12;;;;;;;5.72;2.60;;;18.80;99.90;;;;;;4169818;28;20040;-61
2023/06/30 02:08:13;;;;;;;3.85;2.05;;;18.80;99.90;;;;;;4171788;28;20028;-61
2023/06/30 02:10:13;;;;;;;5.38;1.83;;;18.70;99.90;;;;;;4170052;28;20380;-61
2023/06/30 02:12:14;;;;;;;4.32;2.13;;;18.70;99.90;;;;;;4169740;28;20025;-61
2023/06/30 02:14:15;;;;;;;6.97;2.42;;;18.70;99.90;;;;;;4171703;28;20500;-61
2023/06/30 02:16:16;;;;;;;5.82;2.33;;;18.60;99.90;;;;;;4167066;28;20036;-61
2023/06/30 02:18:16;;;;;;;4.03;1.85;;;18.60;99.90;;;;;;4173164;28;20060;-61
2023/06/30 02:20:17;;;;;;;6.13;2.15;;;18.60;99.90;;;;;;4168507;28;20048;-61
2023/06/30 02:22:18;;;;;;;7.63;2.58;;;18.60;99.90;;;;;;4165725;28;20032;-61
2023/06/30 02:24:19;;;;;;;9.70;2.33;;;18.60;99.90;;;;;;4171115;28;20029;-61
2023/06/30 02:26:19;;;;;;;4.13;2.40;;;18.60;99.90;;;;;;4168267;28;20115;-61
2023/06/30 02:28:20;;;;;;;5.78;2.35;;;18.50;99.90;;;;;;4173147;28;20029;-61
2023/06/30 02:30:21;;;;;;;4.03;2.10;;;18.50;99.90;;;;;;4171721;28;20492;-61
2023/06/30 02:32:21;;;;;;;8.50;2.35;;;18.50;99.90;;;;;;4170150;28;20049;-62
2023/06/30 02:34:23;;;;;;;6.53;2.58;;;18.50;99.90;;;;;;4168006;28;20047;-61
2023/06/30 02:36:24;;;;;;;9.00;2.38;;;18.50;99.90;;;;;;4174009;28;20437;-61
2023/06/30 02:38:25;;;;;;;4.97;2.30;;;18.50;99.90;;;;;;4176485;28;20044;-61
2023/06/30 02:40:26;;;;;;;5.60;2.47;;;18.50;99.90;;;;;;4170986;28;20040;-61
2023/06/30 02:42:26;;;;;;;8.10;3.28;;;18.40;99.90;;;;;;4174710;28;20029;-61
2023/06/30 02:44:27;;;;;;;5.65;2.85;;;18.40;99.90;;;;;;4174291;28;22193;-60
2023/06/30 02:46:27;;;;;;;6.35;2.58;;;18.40;99.90;;;;;;4171081;28;21222;-61
2023/06/30 02:48:29;;;;;;;3.80;2.08;;;18.40;99.90;;;;;;4171821;28;20021;-61
2023/06/30 02:50:31;;;;;;;4.22;2.38;;;18.40;99.90;;;;;;4171156;28;20033;-61
2023/06/30 02:52:31;;;;;;;4.47;2.85;;;18.40;99.90;;;;;;4172382;28;20025;-61
2023/06/30 02:54:33;;;;;;;5.38;2.30;;;18.50;99.90;;;;;;4174911;28;20079;-61
2023/06/30 02:56:34;;;;;;;4.60;2.60;;;18.50;99.90;;;;;;4154901;28;20029;-61
2023/06/30 02:58:36;;;;;;;6.82;2.53;;;18.50;99.90;;;;;;4173899;28;20036;-60
2023/06/30 03:00:36;;;;;;;4.47;2.67;;;18.50;99.90;;;;;;4174660;28;20117;-61
2023/06/30 03:02:37;;;;;;;5.57;3.00;;;18.40;99.90;;;;;;4176588;28;20139;-61
2023/06/30 03:04:38;;;;;;;6.15;2.85;;;18.40;99.90;;;;;;4171219;28;20091;-64
2023/06/30 03:06:38;;;;;;;6.65;2.55;;;18.40;99.90;;;;;;4175369;28;20032;-61
2023/06/30 03:08:39;;;;;;;9.75;3.35;;;18.50;99.90;;;;;;4175354;28;20060;-61
2023/06/30 03:10:39;;;;;;;6.28;2.88;;;18.40;99.90;;;;;;4172067;28;20037;-61
2023/06/30 03:12:40;;;;;;;6.03;2.97;;;18.50;99.90;;;;;;4174967;28;20507;-61
2023/06/30 03:14:41;;;;;;;6.95;3.45;;;18.50;99.90;;;;;;4174396;28;20037;-61
2023/06/30 03:16:41;;;;;;;6.30;2.90;;;18.40;99.90;;;;;;4176912;28;20040;-61
2023/06/30 03:18:42;;;;;;;3.47;2.45;;;18.50;99.90;;;;;;4179143;28;20033;-61
2023/06/30 03:20:42;;;;;;;7.78;2.50;;;18.50;99.90;;;;;;4173713;28;20117;-61
2023/06/30 03:22:43;;;;;;;7.22;3.28;;;18.50;99.90;;;;;;4178574;28;20029;-61
2023/06/30 03:24:43;;;;;;;4.22;2.80;;;18.50;99.90;;;;;;4174058;28;20039;-61
2023/06/30 03:26:44;;;;;;;6.75;2.83;;;18.50;99.90;;;;;;4175596;28;20099;-61
2023/06/30 03:28:45;;;;;;;9.35;3.55;;;18.50;99.90;;;;;;4173090;28;20037;-61
2023/06/30 03:30:45;;;;;;;5.15;2.70;;;18.50;99.90;;;;;;4176437;28;20117;-61
2023/06/30 03:32:46;;;;;;;7.20;3.53;;;18.50;99.90;;;;;;4179059;28;20480;-61
2023/06/30 03:34:46;;;;;;;5.45;2.90;;;18.50;99.90;;;;;;4176631;28;20053;-61
2023/06/30 03:36:47;;;;;;;7.10;3.15;;;18.50;99.90;;;;;;4160558;28;20034;-59
2023/06/30 03:38:47;;;;;;;12.77;3.00;;;18.40;99.90;;;;;;4178951;28;20029;-61
2023/06/30 03:40:48;;;;;;;5.88;2.72;;;18.40;99.90;;;;;;4174975;28;20127;-60
2023/06/30 03:42:48;;;;;;;9.38;2.97;;;18.30;99.90;;;;;;4174030;28;20102;-60
2023/06/30 03:44:49;;;;;;;4.30;2.90;;;18.30;99.90;;;;;;4174634;28;20492;-61
2023/06/30 03:46:50;;;;;;;4.38;2.65;;;18.30;99.90;;;;;;4176659;28;20179;-61
2023/06/30 03:48:51;;;;;;;7.82;2.60;;;18.30;99.90;;;;;;4179144;28;20029;-61
2023/06/30 03:50:54;;;;;;;6.68;2.67;;;18.30;99.90;;;;;;4177221;28;20044;-60
2023/06/30 03:52:55;;;;;;;9.77;3.53;;;18.30;99.90;;;;;;4175381;28;20495;-61
2023/06/30 03:54:55;;;;;;;4.60;2.45;;;18.30;99.90;;;;;;4176339;28;20032;-60
2023/06/30 03:56:57;;;;;;;4.40;2.30;;;18.30;99.90;;;;;;4173524;28;20029;-61
2023/06/30 03:58:57;;;;;;;8.18;2.60;;;18.30;99.90;;;;;;4175544;28;20033;-60
2023/06/30 04:00:58;;;;;;;7.03;2.58;;;18.30;99.90;;;;;;4174504;28;20041;-60
2023/06/30 04:02:59;;;;;;;9.63;2.60;;;18.30;99.90;;;;;;4174351;28;20114;-60
2023/06/30 04:04:59;;;;;;;5.50;2.30;;;18.20;99.90;;;;;;4175945;28;20025;-60
2023/06/30 04:07:00;;;;;;;7.95;2.75;;;18.20;99.90;;;;;;4177705;28;20017;-60
2023/06/30 04:09:00;;;;;;;6.00;2.42;;;18.20;99.90;;;;;;4178914;28;20382;-60
2023/06/30 04:11:02;;;;;;;4.30;1.80;;;18.20;99.90;;;;;;4176659;28;20047;-60
2023/06/30 04:13:07;;;;;;;5.57;1.83;;;18.20;99.90;;;;;;4178035;28;20025;-60
2023/06/30 04:15:08;;;;;;;3.63;1.70;;;18.20;99.90;;;;;;4172310;28;20455;-61
2023/06/30 04:17:08;;;;;;;5.82;1.92;;;18.20;99.90;;;;;;4176760;28;20025;-60
2023/06/30 04:19:09;;;;;;;5.25;1.95;;;18.20;99.90;;;;;;4177330;28;20492;-62
2023/06/30 04:21:09;;;;;;;9.45;1.77;;;18.20;99.90;;;;;;4174129;28;20507;-61
2023/06/30 04:23:10;;;;;;;7.45;2.35;;;18.20;99.90;;;;;;4177974;28;20102;-60
2023/06/30 04:25:11;;;;;;;4.50;1.98;;;18.20;99.90;;;;;;4172864;28;20021;-61
2023/06/30 04:27:11;;;;;;;4.60;1.83;;;18.10;99.90;;;;;;4176493;28;20086;-61
2023/06/30 04:29:12;;;;;;;3.67;1.80;;;18.10;99.90;;;;;;4177860;28;21388;-60
2023/06/30 04:31:13;;;;;;;7.10;1.90;;;18.10;99.90;;;;;;4175204;28;20431;-60
2023/06/30 04:33:13;;;;;;;4.35;1.70;;;18.10;99.90;;;;;;4177922;28;20104;-60
2023/06/30 04:35:15;;;;;;;4.82;1.70;;;18.10;99.90;;;;;;4172628;28;20032;-60
2023/06/30 04:37:15;;;;;;;5.90;1.63;;;18.00;99.90;;;;;;4177398;28;20029;-60
2023/06/30 04:39:16;;;;;;;4.45;1.83;;;18.10;99.90;;;;;;4178184;28;20063;-60
2023/06/30 04:41:16;;;;;;;6.93;1.92;;;18.10;99.90;;;;;;4171242;28;20112;-60
2023/06/30 04:43:17;;;;;;;6.15;1.60;;;18.10;99.90;;;;;;4159761;28;20025;-60
2023/06/30 04:45:18;;;;;;;3.20;1.48;;;18.10;99.90;;;;;;4173536;28;20044;-60
2023/06/30 04:47:19;;;;;;;5.00;1.80;;;18.10;99.90;;;;;;4178505;28;20103;-60
2023/06/30 04:49:19;;;;;;;2.88;1.30;;;18.10;99.90;;;;;;4178013;28;20057;-60
2023/06/30 04:51:20;;;;;;;2.45;1.30;;;18.10;99.90;;;;;;4173012;28;20480;-60
2023/06/30 04:53:20;;;;;;;3.47;1.52;;;18.10;99.90;;;;;;4177509;28;20075;-60
2023/06/30 04:55:21;;;;;;;3.30;1.92;;;18.10;99.90;;;;;;4172420;28;20021;-60
2023/06/30 04:57:22;;;;;;;5.40;1.80;;;18.20;99.90;;;;;;4174536;28;20025;-60
2023/06/30 04:59:23;;;;;;;3.97;1.75;;;18.30;99.90;;;;;;4172470;28;20036;-60
2023/06/30 05:01:24;;;;;;;6.22;2.60;;;18.30;99.90;;;;;;4174672;28;20445;-61
2023/06/30 05:03:24;;;;;;;9.10;2.83;;;18.30;99.90;;;;;;4177371;28;20029;-61
2023/06/30 05:05:25;;;;;;;5.57;2.45;;;18.40;99.90;;;;;;4169813;28;20033;-60
2023/06/30 05:07:26;;;;;;;5.72;2.90;;;18.40;99.90;;;;;;4175694;28;20029;-60
2023/06/30 05:09:26;;;;;;;7.15;2.72;;;18.40;99.90;;;;;;4177948;28;20072;-60
2023/06/30 05:11:27;;;;;;;4.82;2.13;;;18.40;99.90;;;;;;4176600;28;20116;-60
2023/06/30 05:13:27;;;;;;;5.60;2.30;;;18.40;99.90;;;;;;4176529;28;20108;-60
2023/06/30 05:15:28;;;;;;;6.43;2.60;;;18.40;99.90;;;;;;4171561;28;20029;-60
2023/06/30 05:17:28;;;;;;;8.45;2.75;;;18.50;99.90;;;;;;4177742;28;20037;-60
2023/06/30 05:19:29;;;;;;;5.95;2.30;;;18.50;99.90;;;;;;4176931;28;20049;-60
2023/06/30 05:21:29;;;;;;;5.15;2.30;;;18.40;99.90;;;;;;4175169;28;20443;-60
2023/06/30 05:23:30;;;;;;;9.65;2.67;;;18.50;99.90;;;;;;4167813;28;20033;-60
2023/06/30 05:25:31;;;;;;;5.45;2.45;;;18.50;99.90;;;;;;4170177;28;20112;-60
2023/06/30 05:27:31;;;;;;;5.07;2.13;;;18.50;99.90;;;;;;4168165;28;20028;-60
2023/06/30 05:29:32;;;;;;;9.05;3.00;;;18.50;99.90;;;;;;4173697;28;20048;-60
2023/06/30 05:31:32;;;;;;;6.53;2.20;;;18.40;99.90;;;;;;4173202;28;20083;-60
2023/06/30 05:33:33;;;;;;;6.57;2.50;;;18.40;99.90;;;;;;4172138;28;20515;-60
2023/06/30 05:35:34;;;;;;;4.20;2.42;;;18.50;99.90;;;;;;4172414;28;20079;-60
2023/06/30 05:37:34;;;;;;;12.13;3.38;;;18.50;99.90;;;;;;4174733;28;20032;-60
2023/06/30 05:39:36;;;;;;;10.07;2.80;;;18.40;99.90;;;;;;4169929;28;20042;-60
2023/06/30 05:41:36;;;;;;;8.20;2.92;;;18.40;99.90;;;;;;4168761;28;20041;-60
2023/06/30 05:43:37;;;;;;;5.20;2.70;;;18.50;99.90;;;;;;4172263;28;20064;-60
2023/06/30 05:45:39;;;;;;;6.28;2.05;;;18.50;99.90;;;;;;4170925;28;20033;-60
2023/06/30 05:47:39;;;;;;;6.78;2.20;;;18.40;99.90;;;;;;4170036;28;20047;-60
2023/06/30 05:49:40;;;;;;;5.25;2.05;;;18.40;99.90;;;;;;4175500;28;20037;-60
2023/06/30 05:51:40;;;;;;;6.47;2.67;;;18.50;99.90;;;;;;4172623;28;20048;-60
2023/06/30 05:53:41;;;;;;;7.72;2.33;;;18.60;99.90;;;;;;4174809;28;20037;-60
2023/06/30 05:55:42;;;;;;;5.38;2.50;;;18.70;99.90;;;;;;4168913;28;20055;-60
2023/06/30 05:57:42;;;;;;;7.20;1.98;;;18.90;99.90;;;;;;4166725;28;20025;-60
2023/06/30 05:59:43;;;;;;;8.30;2.45;;;19.10;99.90;;;;;;4175202;28;20116;-60
2023/06/30 06:01:44;;;;;;;7.55;2.47;;;19.30;99.90;;;;;;4172827;28;20463;-63
2023/06/30 06:03:44;;;;;;;4.90;2.05;;;19.50;99.90;;;;;;4176866;28;20035;-61
2023/06/30 06:05:45;;;;;;;8.00;2.10;;;19.70;99.90;;;;;;4173661;28;20029;-60
2023/06/30 06:07:47;;;;;;;6.35;2.45;;;19.90;99.90;;;;;;4173937;28;20546;-61
2023/06/30 06:09:48;;;;;;;4.07;1.83;;;20.00;99.90;;;;;;4174034;28;20105;-60
2023/06/30 06:11:48;;;;;;;5.32;1.70;;;20.30;99.90;;;;;;4171260;28;20033;-60
2023/06/30 06:13:49;;;;;;;3.60;1.27;;;20.60;99.90;;;;;;4174393;28;20051;-60
2023/06/30 06:15:50;;;;;;;9.13;2.05;;;20.90;99.90;;;;;;4168015;28;20510;-60
2023/06/30 06:17:50;;;;;;;5.30;1.95;;;21.10;99.90;;;;;;4174798;28;20607;-60
2023/06/30 06:19:52;;;;;;;7.00;1.92;;;21.30;99.90;;;;;;4173190;28;20036;-61
2023/06/30 06:21:52;;;;;;;4.50;1.80;;;21.40;99.90;;;;;;4175451;28;20158;-60
2023/06/30 06:23:54;;;;;;;5.03;1.63;;;21.50;99.90;;;;;;4176440;28;20144;-61
2023/06/30 06:25:55;;;;;;;6.13;1.55;;;21.70;99.90;;;;;;4171957;28;20114;-62
2023/06/30 06:27:57;;;;;;;3.78;1.58;;;21.80;99.90;;;;;;4172429;28;20033;-61
2023/06/30 06:29:57;;;;;;;4.60;1.65;;;21.90;99.90;;;;;;4174207;28;20494;-61
2023/06/30 06:31:58;;;;;;;5.30;1.73;;;22.00;99.90;;;;;;4172716;28;20079;-60
2023/06/30 06:33:59;;;;;;;4.38;1.83;;;22.20;99.90;;;;;;4174205;28;20404;-61
2023/06/30 06:35:59;;;;;;;4.65;1.10;;;22.30;99.90;;;;;;4171241;28;20518;-61
2023/06/30 06:38:00;;;;;;;5.40;1.63;;;22.40;99.90;;;;;;4175031;28;20419;-61
2023/06/30 06:40:01;;;;;;;2.92;1.40;;;22.40;99.90;;;;;;4176544;28;20025;-61
2023/06/30 06:42:01;;;;;;;7.43;1.70;;;22.60;99.90;;;;;;4172796;28;20404;-61
2023/06/30 06:44:02;;;;;;;2.95;1.63;;;22.60;99.90;;;;;;4171857;28;20431;-61
2023/06/30 06:46:03;;;;;;;3.50;1.25;;;22.70;99.90;;;;;;4170728;28;20032;-61
2023/06/30 06:48:21;;;;;;;4.20;1.65;;;22.70;99.90;;;;;;4175161;28;20036;-61
2023/06/30 06:50:22;;;;;;;5.32;1.60;;;22.80;99.90;;;;;;4179893;28;20040;-61
2023/06/30 06:52:22;;;;;;;7.47;2.08;;;22.80;99.90;;;;;;4175855;28;20028;-61
2023/06/30 06:54:23;;;;;;;3.80;1.33;;;22.70;99.90;;;;;;4176549;28;20037;-61
2023/06/30 06:56:23;;;;;;;5.53;1.70;;;22.70;99.90;;;;;;4177480;28;20044;-62
2023/06/30 06:58:29;;;;;;;6.32;1.35;;;22.60;99.90;;;;;;4175897;28;20037;-61
2023/06/30 07:00:30;;;;;;;4.60;1.20;;;22.60;99.90;;;;;;4175550;28;20033;-61
2023/06/30 07:02:31;;;;;;;4.80;1.63;;;22.70;99.90;;;;;;4178429;28;20025;-61
2023/06/30 07:04:31;;;;;;;4.85;1.33;;;22.70;99.90;;;;;;4167963;28;20484;-61
2023/06/30 07:06:32;;;;;;;6.32;1.45;;;22.70;99.90;;;;;;4172856;28;20083;-61
2023/06/30 07:08:35;;;;;;;3.53;1.42;;;22.70;99.90;;;;;;4172289;28;20086;-63
2023/06/30 07:10:35;;;;;;;6.18;1.20;;;22.80;99.90;;;;;;4171904;28;20029;-64
2023/06/30 07:12:36;;;;;;;4.07;1.40;;;22.80;99.90;;;;;;4176402;28;20393;-63
2023/06/30 07:14:36;;;;;;;5.03;1.23;;;22.70;99.90;;;;;;4174085;28;20443;-64
2023/06/30 07:16:37;;;;;;;4.68;1.35;;;22.70;99.90;;;;;;4172433;28;20113;-64
2023/06/30 07:18:37;;;;;;;5.22;1.52;;;22.70;99.90;;;;;;4174847;28;20037;-64
2023/06/30 07:20:38;;;;;;;4.10;1.10;;;22.60;99.90;;;;;;4178325;28;20035;-64
2023/06/30 07:22:38;;;;;;;3.60;1.20;;;22.60;99.90;;;;;;4177369;28;20029;-63
2023/06/30 07:24:39;;;;;;;3.30;0.90;;;22.50;99.90;;;;;;4173591;28;20042;-63
2023/06/30 07:26:40;;;;;;;4.45;1.60;;;22.60;99.90;;;;;;4177614;28;20484;-63
2023/06/30 07:28:40;;;;;;;6.75;1.42;;;22.60;99.90;;;;;;4176304;28;20186;-64
2023/06/30 07:30:41;;;;;;;3.10;1.35;;;22.50;99.90;;;;;;4173851;28;20034;-64
2023/06/30 07:32:42;;;;;;;3.60;1.23;;;22.60;99.90;;;;;;4178513;28;20088;-64
2023/06/30 07:34:42;;;;;;;3.40;1.17;;;22.60;99.90;;;;;;4172147;28;20048;-63
2023/06/30 07:36:43;;;;;;;2.55;1.13;;;22.60;99.90;;;;;;4174678;28;20025;-63
2023/06/30 07:38:46;;;;;;;3.72;1.25;;;22.60;99.90;;;;;;4176142;28;20053;-66
2023/06/30 07:40:47;;;;;;;4.32;1.27;;;22.50;99.90;;;;;;4159653;28;20060;-64
2023/06/30 07:42:48;;;;;;;2.47;1.13;;;22.40;99.90;;;;;;4175356;28;20025;-64
2023/06/30 07:44:49;;;;;;;3.95;1.15;;;22.40;99.90;;;;;;4173574;28;20033;-63
2023/06/30 07:46:49;;;;;;;3.67;1.13;;;22.40;99.90;;;;;;4149218;28;20132;-63
2023/06/30 07:48:50;;;;;;;3.15;1.15;;;22.50;99.90;;;;;;4177354;28;20032;-64
2023/06/30 07:50:51;;;;;;;2.80;0.90;;;22.60;99.90;;;;;;4171581;28;20430;-63
2023/06/30 07:52:52;;;;;;;5.07;1.55;;;22.60;99.90;;;;;;4171823;28;20029;-63
2023/06/30 07:54:55;;;;;;;2.53;0.98;;;22.60;99.90;;;;;;4162047;28;20171;-63
2023/06/30 07:56:56;;;;;;;2.38;0.80;;;22.60;99.90;;;;;;4176255;28;20036;-63
2023/06/30 07:58:56;;;;;;;4.07;1.40;;;22.70;99.90;;;;;;4173352;28;20396;-64
2023/06/30 08:00:57;;;;;;;2.92;1.23;;;22.80;99.90;;;;;;4170538;28;20051;-64
2023/06/30 08:02:57;;;;;;;1.95;0.90;;;22.90;99.90;;;;;;4163480;28;20038;-63
2023/06/30 08:04:58;;;;;;;2.17;0.95;;;22.90;99.90;;;;;;4141910;28;20037;-63
2023/06/30 08:06:58;;;;;;;3.97;1.30;;;23.10;99.90;;;;;;4178631;28;20095;-64
2023/06/30 08:08:59;;;;;;;4.35;1.38;;;23.20;99.90;;;;;;4179191;28;20029;-66
2023/06/30 08:11:00;;;;;;;4.32;1.20;;;23.10;99.90;;;;;;4178713;28;20037;-65
2023/06/30 08:13:00;;;;;;;3.00;1.00;;;23.10;99.90;;;;;;4178446;28;20040;-66
2023/06/30 08:15:01;;;;;;;3.95;1.35;;;23.10;99.90;;;;;;4170630;28;20053;-66
2023/06/30 08:17:03;;;;;;;1.83;0.68;;;23.20;99.90;;;;;;4165423;28;20071;-66
2023/06/30 08:19:03;;;;;;;3.10;1.20;;;23.20;99.90;;;;;;4166760;28;20091;-66
2023/06/30 08:21:04;;;;;;;2.65;0.70;;;23.30;99.90;;;;;;4159083;28;20034;-66
2023/06/30 08:23:04;;;;;;;4.30;1.00;;;23.30;99.90;;;;;;4157029;28;20463;-66
2023/06/30 08:25:05;;;;;;;2.13;0.85;;;23.30;99.90;;;;;;4151571;28;20649;-67
2023/06/30 08:27:06;;;;;;;1.95;0.88;;;23.30;99.90;;;;;;4158687;28;20060;-66
2023/06/30 08:29:06;;;;;;;2.55;0.85;;;23.40;99.50;;;;;;4167047;28;20033;-66
2023/06/30 08:31:07;;;;;;;2.40;0.88;;;23.40;99.50;;;;;;4164690;28;20052;-66
2023/06/30 08:33:07;;;;;;;2.90;0.93;;;23.50;99.60;;;;;;4175581;28;20045;-66
2023/06/30 08:35:08;;;;;;;5.07;0.93;;;23.60;99.90;;;;;;4158898;28;20050;-66
2023/06/30 08:37:09;;;;;;;3.17;1.02;;;23.60;99.60;;;;;;4152681;28;20026;-66
2023/06/30 08:39:10;;;;;;;4.07;1.05;;;23.70;99.90;;;;;;4156928;28;20040;-66
2023/06/30 08:41:12;;;;;;;2.13;0.80;;;23.70;99.90;;;;;;4151590;28;20088;-66
2023/06/30 08:43:12;;;;;;;3.10;1.00;;;23.80;99.90;;;;;;4152227;28;20044;-66
2023/06/30 08:45:14;;;;;;;1.52;0.70;;;23.90;99.90;;;;;;4154989;28;20033;-66
2023/06/30 08:47:14;;;;;;;1.02;0.70;;;23.90;98.00;;;;;;4158821;28;20501;-66
2023/06/30 08:49:15;;;;;;;1.75;0.70;;;24.00;99.90;;;;;;4168007;28;20033;-66
2023/06/30 08:51:17;;;;;;;1.80;0.95;;;24.00;98.90;;;;;;4161406;28;20036;-66
2023/06/30 08:53:18;;;;;;;2.15;0.80;;;24.10;98.90;;;;;;4161040;28;20044;-66
2023/06/30 08:55:19;;;;;;;2.88;1.10;;;24.10;99.20;;;;;;4158795;28;20534;-66
2023/06/30 08:57:21;;;;;;;1.50;0.93;;;24.10;98.20;;;;;;4159959;28;20030;-66
2023/06/30 08:59:21;;;;;;;2.05;0.88;;;24.20;96.80;;;;;;4157870;28;20032;-66
2023/06/30 09:01:23;;;;;;;2.63;1.10;;;24.20;97.90;;;;;;4162469;28;20116;-66
2023/06/30 09:03:23;;;;;;;6.13;1.55;;;24.30;98.70;;;;;;4160320;28;20025;-66
2023/06/30 09:05:25;;;;;;;4.07;1.30;;;24.30;96.50;;;;;;4157290;28;20124;-66
2023/06/30 09:07:30;;;;;;;1.80;0.70;;;24.10;96.60;;;;;;4159551;28;20072;-66
2023/06/30 09:09:45;;;;;;;0.93;0.70;;;24.10;96.90;;;;;;4160153;28;20489;-66
2023/06/30 09:11:46;;;;;;;1.38;0.90;;;24.10;98.10;;;;;;4161017;28;20045;-66
2023/06/30 09:13:47;;;;;;;2.80;1.10;;;24.20;98.70;;;;;;4160004;28;20092;-66
2023/06/30 09:15:48;;;;;;;3.78;1.50;;;24.20;98.00;;;;;;4157541;28;20068;-66
2023/06/30 09:17:49;;;;;;;4.55;1.30;;;24.20;98.00;;;;;;4163575;28;20045;-66
2023/06/30 09:19:50;;;;;;;2.90;1.52;;;24.10;95.60;;;;;;4161225;28;20484;-67
2023/06/30 09:21:51;;;;;;;3.88;1.88;;;24.10;95.30;;;;;;4160533;28;20088;-67
2023/06/30 09:23:51;;;;;;;4.75;1.92;;;24.10;96.00;;;;;;4165087;28;20083;-66
2023/06/30 09:25:52;;;;;;;4.78;1.60;;;24.10;96.40;;;;;;4158365;28;20435;-67
2023/06/30 09:27:54;;;;;;;3.05;1.20;;;24.10;96.00;;;;;;4160851;28;20062;-67
2023/06/30 09:29:55;;;;;;;3.00;1.10;;;24.10;95.40;;;;;;4159153;28;20112;-66
2023/06/30 09:32:01;;;;;;;2.58;1.10;;;24.10;93.80;;;;;;4161019;28;20057;-67
2023/06/30 09:34:12;;;;;;;2.92;1.08;;;24.10;95.00;;;;;;4159629;28;20629;-67
2023/06/30 09:36:16;;;;;;;2.95;1.17;;;24.10;94.70;;;;;;4161413;28;20029;-66
2023/06/30 09:38:18;;;;;;;2.95;0.82;;;24.10;96.40;;;;;;4158768;28;20037;-66
2023/06/30 09:40:24;;;;;;;2.10;1.00;;;24.10;96.70;;;;;;4160790;28;20066;-66
2023/06/30 09:42:26;;;;;;;3.67;1.33;;;24.10;95.40;;;;;;4156504;28;20037;-67
2023/06/30 09:44:27;;;;;;;3.45;1.08;;;24.10;96.70;;;;;;4162301;28;20485;-66
2023/06/30 09:46:28;;;;;;;4.43;1.20;;;24.10;97.00;;;;;;4160012;28;20029;-66
2023/06/30 09:48:34;;;;;;;3.13;1.08;;;24.10;95.30;;;;;;4164213;28;20034;-67
2023/06/30 09:50:35;;;;;;;4.32;0.95;;;24.20;96.00;;;;;;4159767;28;20102;-66
2023/06/30 09:52:37;;;;;;;2.75;0.90;;;24.30;96.00;;;;;;4159571;28;20033;-66
2023/06/30 09:54:37;;;;;;;0.68;0.60;;;24.20;95.20;;;;;;4158079;28;20045;-66
2023/06/30 09:56:40;;;;;;;2.50;1.00;;;24.20;97.10;;;;;;4164537;28;20091;-67
2023/06/30 09:58:42;;;;;;;2.38;0.80;;;24.20;96.20;;;;;;4160493;28;20033;-66
2023/06/30 10:00:44;;;;;;;2.38;0.90;;;24.20;97.20;;;;;;4152615;28;20060;-66
2023/06/30 10:02:44;;;;;;;3.00;0.95;;;24.30;95.90;;;;;;4150069;28;20038;-66
2023/06/30 10:04:45;;;;;;;1.58;0.70;;;24.30;96.30;;;;;;4160516;28;20040;-66
2023/06/30 10:06:47;;;;;;;2.85;1.30;;;24.30;94.00;;;;;;4160079;28;20057;-66
2023/06/30 10:08:51;;;;;;;2.17;0.93;;;24.30;94.20;;;;;;4159308;28;20121;-67
2023/06/30 10:10:55;;;;;;;1.90;0.90;;;24.30;95.00;;;;;;4157274;28;20067;-68
2023/06/30 10:12:58;;;;;;;1.98;0.85;;;24.20;94.00;;;;;;4153273;28;20345;-66
2023/06/30 10:15:00;;;;;;;3.10;0.93;;;24.30;94.90;;;;;;4157364;28;20386;-66
2023/06/30 10:17:02;;;;;;;5.25;1.17;;;24.30;96.40;;;;;;4157239;28;20033;-66
2023/06/30 10:19:05;;;;;;;1.98;1.00;;;24.30;95.30;;;;;;4158605;28;20064;-67
2023/06/30 10:21:06;;;;;;;1.38;0.70;;;24.40;95.00;;;;;;4153798;28;20484;-66
2023/06/30 10:23:07;;;;;;;2.15;0.85;;;24.40;95.10;;;;;;4161488;28;20129;-66
2023/06/30 10:25:09;;;;;;;1.40;0.80;;;24.50;94.60;;;;;;4161748;28;20551;-67
2023/06/30 10:27:12;;;;;;;1.73;0.80;;;24.50;94.30;;;;;;4159845;28;20055;-66
2023/06/30 10:29:13;;;;;;;;;;;24.60;93.40;;;;;;4160697;28;20480;-66
2023/06/30 10:31:13;;;;;;;2.42;0.82;;;24.60;92.10;;;;;;4162216;28;20003;-66
2023/06/30 10:33:14;;;;;;;3.00;1.15;;;24.60;94.70;;;;;;4170227;28;20037;-66